Kljuchi, Russia
Current Conditions -  °F | °C
As of 6:00 AM on Saturday 25 Oct 2014 (Local Time) from UHPP Reporting Station
Broken Clouds Broken Clouds  
Wind Chill: 32°   Ceiling: 10000
Heat Index: 39°   Visibility: 6mi
Dew Point: 23°   Wind: 11mph
Humidity: 52%   Direction: 320°NW
Pressure: 29.85"   Gusts: NA
Location:  56.32°N, 160.83°E
Report Text: UHPP 241800Z 32005MPS 9999 SCT046 BKN100 04/M05 Q1011 NOSIG RMKQFE755/1007 SC070
Loading
Personal Weather Stations






























Interactive Weather Map
Tropical Storm Tracking
New forecast layout! Learn more

10-Day Weather Forecast

Advertisements
Track Severe Weather on mobile